TimeMST,TemperatureF,Dew PointF,Humidity,Sea Level PressureIn,VisibilityMPH,Wind Direction,Wind SpeedMPH,Gust SpeedMPH,PrecipitationIn,Events,Conditions,WindDirDegrees,DateUTC
12:53 AM,27.0,24.1,89,30.29,6.0,SSW,8.1,-,N/A,,Clear,210,2012-11-16 07:53:00
1:53 AM,28.0,23.0,81,30.27,7.0,SSW,4.6,-,N/A,,Clear,210,2012-11-16 08:53:00
2:53 AM,25.0,21.0,85,30.27,10.0,SW,5.8,-,N/A,,Clear,230,2012-11-16 09:53:00
3:53 AM,25.0,21.0,85,30.27,10.0,SW,4.6,-,N/A,,Clear,230,2012-11-16 10:53:00
4:53 AM,25.0,19.9,81,30.28,10.0,WSW,5.8,-,N/A,,Clear,240,2012-11-16 11:53:00
5:53 AM,27.0,21.0,78,30.27,10.0,SW,5.8,-,N/A,,Clear,230,2012-11-16 12:53:00
6:53 AM,28.0,21.0,75,30.27,10.0,South,3.5,-,N/A,,Clear,190,2012-11-16 13:53:00
7:53 AM,30.9,21.9,69,30.26,10.0,SW,9.2,-,N/A,,Clear,230,2012-11-16 14:53:00
8:53 AM,44.1,21.9,42,30.19,10.0,SW,9.2,-,N/A,,Clear,230,2012-11-16 15:53:00
9:53 AM,48.9,19.0,31,30.15,10.0,SSW,8.1,-,N/A,,Clear,210,2012-11-16 16:53:00
10:53 AM,52.0,16.0,24,30.13,10.0,SSW,12.7,-,N/A,,Clear,200,2012-11-16 17:53:00
11:53 AM,53.1,14.0,21,30.09,10.0,SSW,12.7,-,N/A,,Clear,200,2012-11-16 18:53:00
12:53 PM,53.1,19.0,26,30.09,10.0,SSW,10.4,-,N/A,,Clear,200,2012-11-16 19:53:00
1:53 PM,53.1,14.0,21,30.06,10.0,SSW,12.7,-,N/A,,Clear,200,2012-11-16 20:53:00
2:53 PM,52.0,10.9,19,30.08,10.0,SSW,12.7,-,N/A,,Clear,200,2012-11-16 21:53:00
3:53 PM,48.0,14.0,26,30.11,10.0,SSW,8.1,-,N/A,,Clear,210,2012-11-16 22:53:00
4:53 PM,45.0,19.9,37,30.13,10.0,WSW,3.5,-,N/A,,Scattered Clouds,240,2012-11-16 23:53:00
5:53 PM,43.0,23.0,45,30.13,10.0,SSW,8.1,-,N/A,,Overcast,210,2012-11-17 00:53:00
6:53 PM,42.1,24.1,49,30.12,10.0,SSW,3.5,-,N/A,,Mostly Cloudy,210,2012-11-17 01:53:00
7:53 PM,43.0,24.1,47,30.09,10.0,WSW,8.1,-,N/A,,Mostly Cloudy,250,2012-11-17 02:53:00
8:53 PM,42.1,19.9,41,30.02,10.0,WSW,5.8,-,N/A,,Partly Cloudy,240,2012-11-17 03:53:00
9:53 PM,44.1,17.1,34,29.99,10.0,Calm,Calm,-,N/A,,Partly Cloudy,0,2012-11-17 04:53:00
10:53 PM,42.1,19.9,41,29.99,10.0,WNW,5.8,-,N/A,,Clear,300,2012-11-17 05:53:00
11:53 PM,39.0,21.9,50,30.00,10.0,West,8.1,-,N/A,,Clear,280,2012-11-17 06:53:00